createdAt,value
2023-01-13T00:00:31.901Z,97443.10
2023-01-13T00:03:04.399Z,97440.55
2023-01-13T00:05:36.598Z,97442.09
2023-01-13T00:08:11.111Z,97437.14
2023-01-13T00:10:43.070Z,97434.39
2023-01-13T00:13:16.026Z,97429.96
2023-01-13T00:15:56.971Z,97427.40
2023-01-13T00:18:29.987Z,97428.40
2023-01-13T00:21:01.773Z,97427.21
2023-01-13T00:23:35.918Z,97425.16
2023-01-13T00:26:11.777Z,97427.05
2023-01-13T00:28:43.747Z,97423.45
2023-01-13T00:31:17.390Z,97424.30
2023-01-13T00:33:51.405Z,97428.02
2023-01-13T00:36:24.173Z,97425.61
2023-01-13T00:38:56.358Z,97424.92
2023-01-13T00:41:49.458Z,97425.79
2023-01-13T00:44:21.673Z,97431.08
2023-01-13T00:46:53.584Z,97428.18
2023-01-13T00:49:25.847Z,97425.79
2023-01-13T00:51:58.008Z,97425.63
2023-01-13T00:54:30.557Z,97422.41
2023-01-13T00:57:02.667Z,97421.05
2023-01-13T00:59:35.948Z,97422.41
2023-01-13T01:02:08.033Z,97421.22
2023-01-13T01:04:41.689Z,97420.02
2023-01-13T01:07:13.989Z,97417.11
2023-01-13T01:09:46.625Z,97412.63
2023-01-13T01:12:18.873Z,97409.36
2023-01-13T01:14:51.164Z,97411.75
2023-01-13T01:17:23.421Z,97410.73
2023-01-13T01:19:55.831Z,97408.85
2023-01-13T01:22:28.112Z,97407.48
2023-01-13T01:25:00.914Z,97402.17
2023-01-13T01:27:33.437Z,97400.13
2023-01-13T01:30:05.916Z,97399.11
2023-01-13T01:32:38.959Z,97392.97
2023-01-13T01:35:13.660Z,97397.08
2023-01-13T01:37:46.165Z,97395.57
2023-01-13T01:40:18.726Z,97393.02
2023-01-13T01:43:07.851Z,97392.50
2023-01-13T01:45:40.946Z,97392.35
2023-01-13T01:48:15.507Z,97392.19
2023-01-13T01:50:49.460Z,97386.70
2023-01-13T01:53:30.654Z,97384.98
2023-01-13T01:56:04.666Z,97381.05
2023-01-13T01:58:45.861Z,97375.41
2023-01-13T02:01:19.354Z,97373.19
2023-01-13T02:03:59.878Z,97368.39
2023-01-13T02:06:33.452Z,97368.56
2023-01-13T02:09:06.239Z,97367.19
2023-01-13T02:11:57.011Z,97367.69
2023-01-13T02:14:31.418Z,97369.08
2023-01-13T02:17:28.291Z,97364.09
2023-01-13T02:20:37.851Z,97355.20
2023-01-13T02:24:13.830Z,97352.12
2023-01-13T02:27:26.336Z,97349.57
2023-01-13T02:30:26.355Z,97349.75
2023-01-13T02:33:10.651Z,97348.19
2023-01-13T02:35:51.371Z,97344.45
2023-01-13T02:38:40.021Z,97337.60
2023-01-13T02:41:35.186Z,97333.98
2023-01-13T02:44:08.388Z,97333.66
2023-01-13T02:46:47.362Z,97332.12
2023-01-13T02:49:26.775Z,97333.13
2023-01-13T02:52:06.805Z,97329.55
2023-01-13T02:54:43.752Z,97332.09
2023-01-13T02:57:19.148Z,97332.59
2023-01-13T02:59:52.189Z,97328.30
2023-01-13T03:02:27.044Z,97326.21
2023-01-13T03:05:00.664Z,97322.25
2023-01-13T03:07:58.427Z,97317.28
2023-01-13T03:10:52.268Z,97318.83
2023-01-13T03:13:39.510Z,97321.02
2023-01-13T03:16:24.843Z,97315.39
2023-01-13T03:19:09.682Z,97306.63
2023-01-13T03:21:48.928Z,97301.46
2023-01-13T03:24:27.745Z,97299.08
2023-01-13T03:27:06.045Z,97295.66
2023-01-13T03:29:42.805Z,97292.20
2023-01-13T03:32:19.932Z,97291.52
2023-01-13T03:34:56.016Z,97293.39
2023-01-13T03:37:33.009Z,97294.14
2023-01-13T03:40:10.319Z,97296.11
2023-01-13T03:43:06.617Z,97294.56
2023-01-13T03:45:41.587Z,97298.46
2023-01-13T03:48:18.094Z,97296.45
2023-01-13T03:50:55.113Z,97298.83
2023-01-13T03:53:30.424Z,97299.14
2023-01-13T03:56:09.166Z,97296.06
2023-01-13T03:58:44.636Z,97296.88
2023-01-13T04:01:21.636Z,97293.27
2023-01-13T04:03:59.013Z,97288.44
2023-01-13T04:06:38.466Z,97288.63
2023-01-13T04:09:19.665Z,97289.30
2023-01-13T04:11:56.795Z,97286.03
2023-01-13T04:14:30.875Z,97287.45
2023-01-13T04:17:03.292Z,97285.55
2023-01-13T04:19:36.102Z,97278.73
2023-01-13T04:22:08.468Z,97275.47
2023-01-13T04:24:41.276Z,97276.95
2023-01-13T04:27:13.503Z,97270.77
2023-01-13T04:29:45.489Z,97279.62
2023-01-13T04:32:19.066Z,97281.13
2023-01-13T04:34:51.326Z,97279.09
2023-01-13T04:37:23.299Z,97278.50
2023-01-13T04:39:55.499Z,97280.36
2023-01-13T04:42:28.085Z,97281.56
2023-01-13T04:45:00.091Z,97285.09
2023-01-13T04:47:32.648Z,97286.56
2023-01-13T04:50:04.860Z,97286.38
2023-01-13T04:52:38.025Z,97287.35
2023-01-13T04:55:11.987Z,97286.81
2023-01-13T04:57:44.486Z,97286.82
2023-01-13T05:00:19.508Z,97285.77
2023-01-13T05:02:52.902Z,97289.54
2023-01-13T05:05:25.812Z,97283.68
2023-01-13T05:07:59.392Z,97285.23
2023-01-13T05:10:32.028Z,97286.92
2023-01-13T05:13:22.121Z,97289.98
2023-01-13T05:16:18.306Z,97293.24
2023-01-13T05:18:52.255Z,97296.17
2023-01-13T05:21:42.390Z,97298.70
2023-01-13T05:24:44.776Z,97300.98
2023-01-13T05:27:20.076Z,97301.69
2023-01-13T05:29:53.057Z,97301.48
2023-01-13T05:32:28.174Z,97301.63
2023-01-13T05:35:01.963Z,97306.09
2023-01-13T05:37:32.077Z,97303.99
2023-01-13T05:40:21.925Z,97304.33
2023-01-13T05:43:22.046Z,97309.08
2023-01-13T05:45:58.261Z,97309.70
2023-01-13T05:48:33.896Z,97307.43
2023-01-13T05:51:07.920Z,97306.85
2023-01-13T05:53:41.058Z,97304.39
2023-01-13T05:56:14.168Z,97300.59
2023-01-13T05:58:46.430Z,97305.14
2023-01-13T06:01:18.793Z,97298.26
2023-01-13T06:03:51.127Z,97300.06
2023-01-13T06:06:23.414Z,97302.80
2023-01-13T06:08:55.486Z,97305.02
2023-01-13T06:11:29.184Z,97302.75
2023-01-13T06:14:04.615Z,97305.30
2023-01-13T06:16:36.880Z,97302.69
2023-01-13T06:19:14.608Z,97301.45
2023-01-13T06:21:46.943Z,97300.92
2023-01-13T06:24:19.139Z,97303.79
2023-01-13T06:26:52.058Z,97307.91
2023-01-13T06:29:24.054Z,97304.83
2023-01-13T06:31:57.747Z,97302.75
2023-01-13T06:34:28.450Z,97307.23
2023-01-13T06:37:00.798Z,97307.61
2023-01-13T06:39:33.927Z,97310.34
2023-01-13T06:42:23.929Z,97308.15
2023-01-13T06:44:56.021Z,97307.98
2023-01-13T06:47:28.340Z,97310.94
2023-01-13T06:50:00.731Z,97311.96
2023-01-13T06:52:33.967Z,97311.20
2023-01-13T06:55:07.048Z,97308.09
2023-01-13T06:57:51.528Z,97308.60
2023-01-13T07:00:26.729Z,97308.25
2023-01-13T07:03:08.938Z,97301.19
2023-01-13T07:05:41.927Z,97304.05
2023-01-13T07:08:14.087Z,97301.41
2023-01-13T07:10:46.322Z,97300.21
2023-01-13T07:13:39.161Z,97305.68
2023-01-13T07:16:12.146Z,97303.11
2023-01-13T07:18:44.468Z,97302.66
2023-01-13T07:21:19.510Z,97309.32
2023-01-13T07:23:52.094Z,97306.84
2023-01-13T07:26:24.280Z,97309.42
2023-01-13T07:28:56.707Z,97304.84
2023-01-13T07:31:28.898Z,97302.33
2023-01-13T07:34:01.369Z,97304.58
2023-01-13T07:36:33.628Z,97303.67
2023-01-13T07:39:08.057Z,97305.71
2023-01-13T07:41:57.603Z,97306.33
2023-01-13T07:44:29.608Z,97303.55
2023-01-13T07:47:01.690Z,97303.59
2023-01-13T07:49:33.764Z,97307.13
2023-01-13T07:52:06.146Z,97306.73
2023-01-13T07:54:40.873Z,97304.32
2023-01-13T07:57:13.654Z,97301.20
2023-01-13T07:59:45.809Z,97298.48
2023-01-13T08:02:18.210Z,97302.95
2023-01-13T08:04:50.551Z,97298.30
2023-01-13T08:07:24.861Z,97297.36
2023-01-13T08:10:01.101Z,97296.29
2023-01-13T08:12:57.038Z,97299.84
2023-01-13T08:15:30.385Z,97297.34
2023-01-13T08:18:02.546Z,97293.80
2023-01-13T08:20:35.005Z,97295.46
2023-01-13T08:23:07.568Z,97296.11
2023-01-13T08:25:39.975Z,97299.39
2023-01-13T08:28:12.571Z,97295.82
2023-01-13T08:30:44.913Z,97299.52
2023-01-13T08:33:17.943Z,97300.37
2023-01-13T08:35:53.125Z,97300.31
2023-01-13T08:38:28.520Z,97302.12
2023-01-13T08:41:00.759Z,97303.38
2023-01-13T08:43:33.279Z,97295.19
2023-01-13T08:46:06.697Z,97299.92
2023-01-13T08:48:39.285Z,97303.33
2023-01-13T08:51:12.639Z,97305.34
2023-01-13T08:53:44.774Z,97302.71
2023-01-13T08:56:17.279Z,97305.19
2023-01-13T08:58:49.777Z,97307.33
2023-01-13T09:01:24.872Z,97305.20
2023-01-13T09:03:57.690Z,97309.70
2023-01-13T09:06:29.767Z,97310.10
2023-01-13T09:09:02.865Z,97311.58
2023-01-13T09:11:57.075Z,97315.56
2023-01-13T09:14:28.801Z,97315.09
2023-01-13T09:17:01.218Z,97318.17
2023-01-13T09:19:33.576Z,97312.24
2023-01-13T09:22:05.943Z,97311.45
2023-01-13T09:24:37.955Z,97309.53
2023-01-13T09:27:10.393Z,97312.02
2023-01-13T09:29:42.772Z,97312.13
2023-01-13T09:32:17.074Z,97312.65
2023-01-13T09:35:02.056Z,97313.09
2023-01-13T09:37:35.694Z,97313.42
2023-01-13T09:40:11.398Z,97306.73
2023-01-13T09:43:06.121Z,97306.95
2023-01-13T09:45:45.789Z,97302.88
2023-01-13T09:48:22.478Z,97301.84
2023-01-13T09:51:04.639Z,97297.45
2023-01-13T09:53:39.889Z,97293.50
2023-01-13T09:56:13.563Z,97293.04
2023-01-13T09:58:46.594Z,97284.37
2023-01-13T10:01:28.272Z,97281.27
2023-01-13T10:04:04.170Z,97280.94
2023-01-13T10:06:40.408Z,97283.11
2023-01-13T10:09:20.211Z,97277.34
2023-01-13T10:12:13.848Z,97275.67
2023-01-13T10:14:53.498Z,97273.80
2023-01-13T10:17:31.962Z,97271.37
2023-01-13T10:20:18.459Z,97268.30
2023-01-13T10:23:02.217Z,97263.27
2023-01-13T10:25:55.013Z,97263.14
2023-01-13T10:28:27.889Z,97253.15
2023-01-13T10:31:00.148Z,97254.27
2023-01-13T10:33:32.755Z,97250.59
2023-01-13T10:36:14.356Z,97244.08
2023-01-13T10:38:48.374Z,97242.14
2023-01-13T10:41:29.257Z,97237.61
2023-01-13T10:44:08.424Z,97238.98
2023-01-13T10:46:55.411Z,97235.35
2023-01-13T10:49:34.325Z,97233.80
2023-01-13T10:52:29.074Z,97235.02
2023-01-13T10:55:01.517Z,97233.57
2023-01-13T10:57:39.732Z,97234.67
2023-01-13T11:00:29.923Z,97230.79
2023-01-13T11:03:18.616Z,97228.27
2023-01-13T11:05:55.682Z,97228.39
2023-01-13T11:08:30.252Z,97222.77
2023-01-13T11:11:02.981Z,97222.50
2023-01-13T11:13:59.370Z,97220.59
2023-01-13T11:16:31.780Z,97218.95
2023-01-13T11:19:13.687Z,97216.77
2023-01-13T11:21:54.823Z,97208.71
2023-01-13T11:24:37.346Z,97205.20
2023-01-13T11:27:17.876Z,97207.23
2023-01-13T11:30:10.312Z,97203.74
2023-01-13T11:32:55.387Z,97198.10
2023-01-13T11:35:28.740Z,97198.09
2023-01-13T11:38:06.159Z,97190.28
2023-01-13T11:40:43.127Z,97186.59
2023-01-13T11:43:25.131Z,97181.00
2023-01-13T11:46:00.724Z,97182.02
2023-01-13T11:48:37.728Z,97182.02
2023-01-13T11:51:24.580Z,97182.55
2023-01-13T11:54:11.271Z,97176.70
2023-01-13T11:57:05.504Z,97181.80
2023-01-13T11:59:56.610Z,97180.11
2023-01-13T12:02:46.844Z,97177.28
2023-01-13T12:05:26.844Z,97178.73
2023-01-13T12:08:12.819Z,97173.36
2023-01-13T12:10:56.847Z,97170.77
2023-01-13T12:13:42.128Z,97169.40
2023-01-13T12:16:27.393Z,97165.69
2023-01-13T12:19:20.331Z,97167.09
2023-01-13T12:22:05.043Z,97166.59
2023-01-13T12:24:44.566Z,97164.04
2023-01-13T12:27:24.357Z,97163.55
2023-01-13T12:30:00.269Z,97162.59
2023-01-13T12:32:36.235Z,97156.20
2023-01-13T12:35:25.978Z,97152.27
2023-01-13T12:38:05.461Z,97150.89
2023-01-13T12:40:49.275Z,97151.68
2023-01-13T12:43:40.839Z,97150.70
2023-01-13T12:46:53.388Z,97155.49
2023-01-13T12:49:28.107Z,97155.93
2023-01-13T12:52:18.830Z,97157.48
2023-01-13T12:55:24.000Z,97156.18
2023-01-13T12:58:27.667Z,97151.91
2023-01-13T13:01:15.876Z,97146.64
2023-01-13T13:04:12.586Z,97145.48
2023-01-13T13:06:47.800Z,97146.62
2023-01-13T13:09:28.130Z,97145.22
2023-01-13T13:12:17.790Z,97145.16
2023-01-13T13:15:07.941Z,97151.77
2023-01-13T13:18:04.767Z,97158.64
2023-01-13T13:21:04.228Z,97163.15
2023-01-13T13:24:03.305Z,97161.70
2023-01-13T13:26:47.134Z,97162.80
2023-01-13T13:29:52.684Z,97169.44
2023-01-13T13:32:56.217Z,97176.72
2023-01-13T13:35:41.959Z,97184.56
2023-01-13T13:38:48.829Z,97185.87
2023-01-13T13:41:52.673Z,97185.63
2023-01-13T13:44:47.333Z,97188.41
2023-01-13T13:47:22.116Z,97185.77
2023-01-13T13:49:56.575Z,97191.13
2023-01-13T13:52:38.090Z,97191.13
2023-01-13T13:55:17.800Z,97193.42
2023-01-13T13:57:51.914Z,97193.02
2023-01-13T14:00:28.333Z,97189.13
2023-01-13T14:03:03.558Z,97193.52
2023-01-13T14:05:37.053Z,97197.96
2023-01-13T14:08:17.093Z,97196.19
2023-01-13T14:10:49.987Z,97197.25
2023-01-13T14:13:26.515Z,97199.66
2023-01-13T14:16:01.687Z,97198.63
2023-01-13T14:18:45.694Z,97202.10
2023-01-13T14:21:26.025Z,97207.61
2023-01-13T14:24:02.066Z,97205.21
2023-01-13T14:26:38.205Z,97204.64
2023-01-13T14:29:15.932Z,97206.17
2023-01-13T14:31:50.137Z,97214.86
2023-01-13T14:34:32.114Z,97214.08
2023-01-13T14:37:23.070Z,97213.59
2023-01-13T14:39:56.805Z,97210.66
2023-01-13T14:42:31.959Z,97208.27
2023-01-13T14:45:04.648Z,97201.52
2023-01-13T14:47:37.176Z,97199.22
2023-01-13T14:50:26.168Z,97201.55
2023-01-13T14:53:00.995Z,97199.73
2023-01-13T14:55:34.684Z,97204.95
2023-01-13T14:58:24.750Z,97206.30
2023-01-13T15:01:30.131Z,97204.33
2023-01-13T15:04:20.649Z,97205.73
2023-01-13T15:06:58.200Z,97201.98
2023-01-13T15:09:46.810Z,97204.63
2023-01-13T15:12:31.043Z,97200.79
2023-01-13T15:15:04.413Z,97200.68
2023-01-13T15:17:37.371Z,97200.33
2023-01-13T15:20:16.447Z,97197.61
2023-01-13T15:22:48.589Z,97201.60
2023-01-13T15:25:21.032Z,97197.56
2023-01-13T15:27:54.581Z,97196.54
2023-01-13T15:30:26.489Z,97194.65
2023-01-13T15:33:00.791Z,97192.53
2023-01-13T15:35:33.033Z,97190.64
2023-01-13T15:38:10.981Z,97184.20
2023-01-13T15:40:46.207Z,97183.63
2023-01-13T15:43:38.304Z,97184.11
2023-01-13T15:46:41.026Z,97182.63
2023-01-13T15:49:21.585Z,97187.51
2023-01-13T15:51:57.434Z,97191.95
2023-01-13T15:54:30.169Z,97192.64
2023-01-13T15:57:02.447Z,97197.20
2023-01-13T15:59:34.476Z,97202.27
2023-01-13T16:02:11.241Z,97199.69
2023-01-13T16:04:43.372Z,97204.42
2023-01-13T16:07:19.181Z,97203.48
2023-01-13T16:09:51.500Z,97209.29
2023-01-13T16:12:23.681Z,97208.98
2023-01-13T16:14:55.703Z,97212.87
2023-01-13T16:17:30.379Z,97212.60
2023-01-13T16:20:02.599Z,97215.95
2023-01-13T16:22:34.770Z,97223.87
2023-01-13T16:25:07.468Z,97223.83
2023-01-13T16:27:39.735Z,97229.05
2023-01-13T16:30:25.108Z,97232.75
2023-01-13T16:32:58.473Z,97233.21
2023-01-13T16:35:32.355Z,97235.61
2023-01-13T16:38:05.028Z,97239.30
2023-01-13T16:40:38.303Z,97242.98
2023-01-13T16:43:13.357Z,97245.78
2023-01-13T16:45:46.046Z,97247.36
2023-01-13T16:48:22.933Z,97251.20
2023-01-13T16:50:56.046Z,97253.88
2023-01-13T16:53:28.211Z,97253.28
2023-01-13T16:56:00.969Z,97252.45
2023-01-13T16:58:33.729Z,97253.17
2023-01-13T17:01:15.738Z,97257.02
2023-01-13T17:03:51.904Z,97256.52
2023-01-13T17:06:28.815Z,97257.64
2023-01-13T17:09:08.588Z,97256.29
2023-01-13T17:11:41.031Z,97257.45
2023-01-13T17:14:18.498Z,97257.27
2023-01-13T17:16:52.195Z,97258.23
2023-01-13T17:19:26.001Z,97261.15
2023-01-13T17:21:58.293Z,97260.27
2023-01-13T17:24:33.249Z,97254.91
2023-01-13T17:27:08.070Z,97258.48
2023-01-13T17:29:42.351Z,97262.83
2023-01-13T17:32:20.714Z,97264.89
2023-01-13T17:34:54.991Z,97264.64
2023-01-13T17:37:30.434Z,97265.64
2023-01-13T17:40:03.179Z,97263.52
2023-01-13T17:42:35.308Z,97267.42
2023-01-13T17:45:11.560Z,97268.64
2023-01-13T17:50:31.321Z,97271.70
2023-01-13T17:53:06.208Z,97272.98
2023-01-13T17:55:39.225Z,97275.92
2023-01-13T17:58:11.377Z,97279.64
2023-01-13T18:00:46.377Z,97279.82
2023-01-13T18:03:21.963Z,97281.20
2023-01-13T18:05:55.250Z,97284.83
2023-01-13T18:08:29.998Z,97284.45
2023-01-13T18:11:03.141Z,97280.23
2023-01-13T18:13:36.711Z,97277.65
2023-01-13T18:16:11.535Z,97277.42
2023-01-13T18:18:45.822Z,97281.98
2023-01-13T18:21:40.588Z,97283.11
2023-01-13T18:24:34.076Z,97287.11
2023-01-13T18:27:23.717Z,97292.76
2023-01-13T18:29:58.689Z,97292.88
2023-01-13T18:32:33.770Z,97295.13
2023-01-13T18:35:10.702Z,97292.45
2023-01-13T18:37:46.503Z,97290.18
2023-01-13T18:40:25.619Z,97288.61
2023-01-13T18:42:59.833Z,97292.23
2023-01-13T18:45:33.783Z,97296.07
2023-01-13T18:48:08.813Z,97295.99
2023-01-13T18:50:42.242Z,97296.16
2023-01-13T18:53:19.160Z,97298.95
2023-01-13T18:55:56.950Z,97303.09
2023-01-13T18:58:35.949Z,97307.15
2023-01-13T19:01:11.677Z,97306.99
2023-01-13T19:03:46.404Z,97308.94
2023-01-13T19:06:22.958Z,97312.02
2023-01-13T19:08:58.981Z,97312.98
2023-01-13T19:11:32.711Z,97318.45
2023-01-13T19:14:04.193Z,97324.98
2023-01-13T19:16:37.287Z,97328.42
2023-01-13T19:19:22.523Z,97333.73
2023-01-13T19:21:58.079Z,97339.42
2023-01-13T19:24:31.760Z,97343.00
2023-01-13T19:27:07.291Z,97350.53
2023-01-13T19:29:50.168Z,97352.27
2023-01-13T19:32:28.086Z,97356.24
2023-01-13T19:35:01.482Z,97358.95
2023-01-13T19:37:34.806Z,97359.86
2023-01-13T19:40:09.633Z,97365.25
2023-01-13T19:43:03.280Z,97370.80
2023-01-13T19:45:36.766Z,97377.04
2023-01-13T19:48:09.602Z,97381.73
2023-01-13T19:50:42.496Z,97387.77
2023-01-13T19:53:22.295Z,97384.83
2023-01-13T19:56:04.857Z,97387.52
2023-01-13T19:58:37.765Z,97389.17
2023-01-13T20:01:12.669Z,97393.67
2023-01-13T20:03:46.922Z,97400.65
2023-01-13T20:06:20.513Z,97398.85
2023-01-13T20:08:55.575Z,97393.99
2023-01-13T20:11:33.472Z,97396.23
2023-01-13T20:14:06.228Z,97400.80
2023-01-13T20:16:39.087Z,97400.33
2023-01-13T20:19:14.362Z,97406.23
2023-01-13T20:21:48.663Z,97403.75
2023-01-13T20:24:21.819Z,97406.96
2023-01-13T20:26:59.774Z,97405.65
2023-01-13T20:29:32.215Z,97405.45
2023-01-13T20:32:04.932Z,97406.13
2023-01-13T20:34:39.265Z,97405.28
2023-01-13T20:37:14.546Z,97404.48
2023-01-13T20:39:47.442Z,97406.81
2023-01-13T20:42:32.301Z,97409.08
2023-01-13T20:45:04.425Z,97410.67
2023-01-13T20:47:36.767Z,97412.60
2023-01-13T20:50:13.724Z,97409.63
2023-01-13T20:52:47.942Z,97412.66
2023-01-13T20:55:20.154Z,97416.02
2023-01-13T20:57:54.037Z,97421.06
2023-01-13T21:00:28.802Z,97424.66
2023-01-13T21:03:01.080Z,97425.22
2023-01-13T21:05:34.346Z,97423.19
2023-01-13T21:08:06.840Z,97426.13
2023-01-13T21:10:41.712Z,97425.80
2023-01-13T21:13:33.016Z,97425.80
2023-01-13T21:16:06.079Z,97428.95
2023-01-13T21:18:57.427Z,97424.88
2023-01-13T21:21:30.244Z,97429.56
2023-01-13T21:24:02.259Z,97434.85
2023-01-13T21:26:34.882Z,97435.58
2023-01-13T21:29:07.618Z,97441.27
2023-01-13T21:31:41.033Z,97438.54
2023-01-13T21:34:13.908Z,97444.67
2023-01-13T21:36:46.256Z,97449.13
2023-01-13T21:39:18.566Z,97454.38
2023-01-13T21:42:08.785Z,97459.35
2023-01-13T21:44:58.257Z,97462.44
2023-01-13T21:47:48.041Z,97468.73
2023-01-13T21:50:21.930Z,97472.96
2023-01-13T21:52:54.795Z,97474.20
2023-01-13T21:55:29.729Z,97473.05
2023-01-13T21:58:09.427Z,97473.40
2023-01-13T22:00:42.799Z,97476.67
2023-01-13T22:03:19.608Z,97475.95
2023-01-13T22:05:58.139Z,97478.56
2023-01-13T22:08:36.466Z,97479.41
2023-01-13T22:11:13.355Z,97483.90
2023-01-13T22:14:02.629Z,97481.34
2023-01-13T22:16:36.900Z,97481.31
2023-01-13T22:19:09.874Z,97484.77
2023-01-13T22:21:42.542Z,97488.41
2023-01-13T22:24:15.172Z,97491.54
2023-01-13T22:26:47.488Z,97496.20
2023-01-13T22:29:22.686Z,97500.34
2023-01-13T22:31:54.983Z,97499.48
2023-01-13T22:34:27.557Z,97500.71
2023-01-13T22:37:00.105Z,97502.90
2023-01-13T22:39:32.428Z,97506.34
2023-01-13T22:42:05.335Z,97507.54
2023-01-13T22:44:39.900Z,97508.59
2023-01-13T22:47:11.987Z,97505.00
2023-01-13T22:49:47.938Z,97507.18
2023-01-13T22:52:20.837Z,97506.34
2023-01-13T22:54:52.816Z,97505.46
2023-01-13T22:57:24.908Z,97501.32
2023-01-13T22:59:57.627Z,97504.28
2023-01-13T23:02:34.523Z,97509.98
2023-01-13T23:05:07.476Z,97514.98
2023-01-13T23:07:40.833Z,97514.48
2023-01-13T23:10:14.411Z,97520.36
2023-01-13T23:12:44.807Z,97523.77
2023-01-13T23:15:18.135Z,97526.19
2023-01-13T23:17:51.809Z,97527.70
2023-01-13T23:20:22.068Z,97525.00
2023-01-13T23:22:54.719Z,97526.11
2023-01-13T23:25:27.593Z,97519.23
2023-01-13T23:27:59.935Z,97516.65
2023-01-13T23:30:32.007Z,97519.92
2023-01-13T23:33:04.477Z,97521.38
2023-01-13T23:35:36.609Z,97526.35
2023-01-13T23:38:08.765Z,97526.38
2023-01-13T23:40:43.832Z,97523.14
2023-01-13T23:43:16.090Z,97525.23
2023-01-13T23:45:48.286Z,97522.30
2023-01-13T23:48:20.455Z,97521.42
2023-01-13T23:51:02.216Z,97522.47
2023-01-13T23:53:39.199Z,97526.62
2023-01-13T23:56:16.292Z,97529.86
2023-01-13T23:58:52.479Z,97527.70
